sensor_id;sensor_type;location;lat;lon;timestamp;pressure;altitude;pressure_sealevel;temperature;humidity
75188;BME280;63762;51.334;22.108;2024-02-04T00:04:02;101116.34;;;6.78;87.13
75188;BME280;63762;51.334;22.108;2024-02-04T00:14:09;101110.69;;;6.98;85.72
75188;BME280;63762;51.334;22.108;2024-02-04T00:24:16;101120.07;;;7.05;85.52
75188;BME280;63762;51.334;22.108;2024-02-04T00:34:23;101144.88;;;6.77;82.53
75188;BME280;63762;51.334;22.108;2024-02-04T00:44:31;101171.72;;;6.45;85.42
75188;BME280;63762;51.334;22.108;2024-02-04T00:54:38;101144.13;;;6.29;83.46
75188;BME280;63762;51.334;22.108;2024-02-04T01:04:45;101155.48;;;6.17;85.28
75188;BME280;63762;51.334;22.108;2024-02-04T01:14:52;101157.55;;;6.12;86.70
75188;BME280;63762;51.334;22.108;2024-02-04T01:24:59;101152.23;;;6.27;86.62
75188;BME280;63762;51.334;22.108;2024-02-04T01:35:07;101149.98;;;6.20;85.75
75188;BME280;63762;51.334;22.108;2024-02-04T01:45:13;101140.07;;;6.22;84.03
75188;BME280;63762;51.334;22.108;2024-02-04T01:55:21;101129.48;;;6.36;83.54
75188;BME280;63762;51.334;22.108;2024-02-04T02:05:28;101127.41;;;6.41;82.57
75188;BME280;63762;51.334;22.108;2024-02-04T02:15:49;101123.63;;;6.45;81.37
75188;BME280;63762;51.334;22.108;2024-02-04T02:25:46;101119.82;;;6.49;81.25
75188;BME280;63762;51.334;22.108;2024-02-04T02:35:53;101118.79;;;6.36;81.32
75188;BME280;63762;51.334;22.108;2024-02-04T02:45:57;101098.95;;;6.24;80.72
75188;BME280;63762;51.334;22.108;2024-02-04T02:56:04;101102.84;;;6.19;80.31
75188;BME280;63762;51.334;22.108;2024-02-04T03:06:10;101129.38;;;6.22;79.40
75188;BME280;63762;51.334;22.108;2024-02-04T03:16:17;101134.65;;;6.23;79.24
75188;BME280;63762;51.334;22.108;2024-02-04T03:26:25;101127.38;;;6.25;78.80
75188;BME280;63762;51.334;22.108;2024-02-04T03:36:32;101123.26;;;6.35;77.85
75188;BME280;63762;51.334;22.108;2024-02-04T03:46:39;101142.74;;;6.37;77.36
75188;BME280;63762;51.334;22.108;2024-02-04T03:56:46;101134.31;;;6.45;76.78
75188;BME280;63762;51.334;22.108;2024-02-04T04:06:53;101124.04;;;6.53;76.38
75188;BME280;63762;51.334;22.108;2024-02-04T04:17:00;101125.34;;;6.46;76.63
75188;BME280;63762;51.334;22.108;2024-02-04T04:27:07;101143.27;;;6.59;76.70
75188;BME280;63762;51.334;22.108;2024-02-04T04:37:15;101124.82;;;6.55;76.28
75188;BME280;63762;51.334;22.108;2024-02-04T04:47:22;101120.74;;;6.32;76.30
75188;BME280;63762;51.334;22.108;2024-02-04T04:57:29;101123.63;;;6.29;74.82
75188;BME280;63762;51.334;22.108;2024-02-04T05:07:36;101131.10;;;6.23;74.34
75188;BME280;63762;51.334;22.108;2024-02-04T05:17:43;101148.26;;;6.19;73.53
75188;BME280;63762;51.334;22.108;2024-02-04T05:27:50;101161.31;;;6.08;73.43
75188;BME280;63762;51.334;22.108;2024-02-04T05:37:57;101149.41;;;5.98;73.01
75188;BME280;63762;51.334;22.108;2024-02-04T05:48:05;101136.22;;;5.95;72.08
75188;BME280;63762;51.334;22.108;2024-02-04T05:58:12;101163.25;;;5.89;72.86
75188;BME280;63762;51.334;22.108;2024-02-04T06:08:19;101160.42;;;5.92;72.65
75188;BME280;63762;51.334;22.108;2024-02-04T06:18:26;101164.65;;;5.79;73.67
75188;BME280;63762;51.334;22.108;2024-02-04T06:28:33;101168.59;;;5.72;72.88
75188;BME280;63762;51.334;22.108;2024-02-04T06:38:40;101168.15;;;5.64;72.46
75188;BME280;63762;51.334;22.108;2024-02-04T06:51:55;101165.32;;;5.67;71.30
75188;BME280;63762;51.334;22.108;2024-02-04T07:02:02;101190.74;;;5.74;70.88
75188;BME280;63762;51.334;22.108;2024-02-04T07:12:09;101175.04;;;5.68;70.27
75188;BME280;63762;51.334;22.108;2024-02-04T07:22:16;101190.33;;;5.64;70.95
75188;BME280;63762;51.334;22.108;2024-02-04T07:32:23;101201.25;;;5.60;70.53
75188;BME280;63762;51.334;22.108;2024-02-04T07:42:31;101205.96;;;5.72;71.21
75188;BME280;63762;51.334;22.108;2024-02-04T07:52:38;101188.00;;;5.75;70.11
75188;BME280;63762;51.334;22.108;2024-02-04T08:02:45;101200.71;;;5.87;69.97
75188;BME280;63762;51.334;22.108;2024-02-04T08:12:52;101212.70;;;6.13;69.64
75188;BME280;63762;51.334;22.108;2024-02-04T08:22:59;101172.09;;;6.06;68.75
75188;BME280;63762;51.334;22.108;2024-02-04T08:33:06;101175.56;;;6.24;69.83
75188;BME280;63762;51.334;22.108;2024-02-04T08:43:13;101197.07;;;6.05;69.90
75188;BME280;63762;51.334;22.108;2024-02-04T08:53:21;101211.66;;;6.15;70.13
75188;BME280;63762;51.334;22.108;2024-02-04T09:03:27;101202.12;;;6.27;68.67
75188;BME280;63762;51.334;22.108;2024-02-04T09:13:35;101177.05;;;6.76;67.72
75188;BME280;63762;51.334;22.108;2024-02-04T09:23:42;101187.73;;;7.07;65.59
75188;BME280;63762;51.334;22.108;2024-02-04T09:33:49;101200.32;;;7.05;65.29
75188;BME280;63762;51.334;22.108;2024-02-04T09:43:56;101198.95;;;6.98;63.86
75188;BME280;63762;51.334;22.108;2024-02-04T09:54:04;101194.41;;;6.84;64.56
75188;BME280;63762;51.334;22.108;2024-02-04T10:04:10;101180.69;;;6.75;64.28
75188;BME280;63762;51.334;22.108;2024-02-04T10:14:17;101181.91;;;6.69;63.39
75188;BME280;63762;51.334;22.108;2024-02-04T10:24:25;101167.25;;;6.61;64.66
75188;BME280;63762;51.334;22.108;2024-02-04T10:34:32;101148.88;;;6.55;64.22
75188;BME280;63762;51.334;22.108;2024-02-04T10:44:42;101121.72;;;6.62;63.90
75188;BME280;63762;51.334;22.108;2024-02-04T10:54:48;101126.02;;;6.65;62.60
75188;BME280;63762;51.334;22.108;2024-02-04T11:04:53;101097.56;;;6.64;62.65
75188;BME280;63762;51.334;22.108;2024-02-04T11:15:03;101112.88;;;6.76;62.60
75188;BME280;63762;51.334;22.108;2024-02-04T11:25:17;101094.42;;;6.87;62.22
75188;BME280;63762;51.334;22.108;2024-02-04T11:35:20;101088.24;;;6.71;62.84
75188;BME280;63762;51.334;22.108;2024-02-04T11:45:26;101068.21;;;6.78;63.25
75188;BME280;63762;51.334;22.108;2024-02-04T11:55:29;101057.47;;;6.64;63.54
75188;BME280;63762;51.334;22.108;2024-02-04T12:05:37;101073.83;;;6.73;64.22
75188;BME280;63762;51.334;22.108;2024-02-04T12:15:43;101060.55;;;6.72;64.71
75188;BME280;63762;51.334;22.108;2024-02-04T12:25:50;101060.85;;;6.52;67.24
75188;BME280;63762;51.334;22.108;2024-02-04T12:36:00;101046.58;;;6.22;70.78
75188;BME280;63762;51.334;22.108;2024-02-04T12:46:04;101060.28;;;5.68;76.27
75188;BME280;63762;51.334;22.108;2024-02-04T12:56:12;101037.92;;;5.21;81.08
75188;BME280;63762;51.334;22.108;2024-02-04T13:06:19;101027.72;;;5.29;82.34
75188;BME280;63762;51.334;22.108;2024-02-04T13:16:26;101026.57;;;5.17;82.67
75188;BME280;63762;51.334;22.108;2024-02-04T13:26:33;101009.30;;;5.24;83.11
75188;BME280;63762;51.334;22.108;2024-02-04T13:36:40;100999.51;;;5.25;83.66
75188;BME280;63762;51.334;22.108;2024-02-04T13:46:47;100996.32;;;5.34;83.20
75188;BME280;63762;51.334;22.108;2024-02-04T13:56:55;100980.48;;;5.31;83.64
75188;BME280;63762;51.334;22.108;2024-02-04T14:07:01;100968.98;;;5.46;82.78
75188;BME280;63762;51.334;22.108;2024-02-04T14:17:09;100961.69;;;5.49;83.03
75188;BME280;63762;51.334;22.108;2024-02-04T14:27:16;100947.47;;;5.64;81.46
75188;BME280;63762;51.334;22.108;2024-02-04T14:37:23;100928.70;;;5.66;80.63
75188;BME280;63762;51.334;22.108;2024-02-04T14:47:30;100916.48;;;5.77;79.00
